sensor_id;sensor_type;location;lat;lon;timestamp;pressure;altitude;pressure_sealevel;temperature;humidity
46778;BME280;32536;47.128;8.746;2023-07-16T00:00:33;91774.97;;;25.66;42.87
46778;BME280;32536;47.128;8.746;2023-07-16T00:03:01;91785.41;;;25.56;43.32
46778;BME280;32536;47.128;8.746;2023-07-16T00:05:27;91781.69;;;25.42;44.53
46778;BME280;32536;47.128;8.746;2023-07-16T00:07:54;91786.84;;;25.29;44.77
46778;BME280;32536;47.128;8.746;2023-07-16T00:10:22;91794.28;;;25.11;44.88
46778;BME280;32536;47.128;8.746;2023-07-16T00:12:49;91810.69;;;24.94;44.47
46778;BME280;32536;47.128;8.746;2023-07-16T00:15:15;91817.81;;;24.74;44.38
46778;BME280;32536;47.128;8.746;2023-07-16T00:17:42;91836.66;;;24.61;44.24
46778;BME280;32536;47.128;8.746;2023-07-16T00:20:09;91864.63;;;24.39;45.57
46778;BME280;32536;47.128;8.746;2023-07-16T00:22:36;91863.50;;;24.19;44.77
46778;BME280;32536;47.128;8.746;2023-07-16T00:25:06;91831.72;;;23.95;45.00
46778;BME280;32536;47.128;8.746;2023-07-16T00:27:42;91855.81;;;23.65;48.79
46778;BME280;32536;47.128;8.746;2023-07-16T00:30:09;91854.31;;;23.38;45.44
46778;BME280;32536;47.128;8.746;2023-07-16T00:32:36;91867.28;;;23.01;45.84
46778;BME280;32536;47.128;8.746;2023-07-16T00:35:02;91886.09;;;22.79;45.39
46778;BME280;32536;47.128;8.746;2023-07-16T00:37:29;91885.53;;;22.54;46.13
46778;BME280;32536;47.128;8.746;2023-07-16T00:39:56;91887.34;;;22.27;46.39
46778;BME280;32536;47.128;8.746;2023-07-16T00:42:23;91881.94;;;21.97;46.40
46778;BME280;32536;47.128;8.746;2023-07-16T00:44:49;91898.38;;;21.73;46.68
46778;BME280;32536;47.128;8.746;2023-07-16T00:47:16;91906.88;;;21.51;46.06
46778;BME280;32536;47.128;8.746;2023-07-16T00:49:43;91923.19;;;21.36;46.74
46778;BME280;32536;47.128;8.746;2023-07-16T00:52:15;91921.00;;;21.25;47.03
46778;BME280;32536;47.128;8.746;2023-07-16T00:54:44;91892.25;;;21.24;46.12
46778;BME280;32536;47.128;8.746;2023-07-16T00:57:11;91878.72;;;21.30;45.88
46778;BME280;32536;47.128;8.746;2023-07-16T00:59:38;91884.47;;;21.32;45.77
46778;BME280;32536;47.128;8.746;2023-07-16T01:02:05;91913.59;;;21.25;46.30
46778;BME280;32536;47.128;8.746;2023-07-16T01:04:32;91903.16;;;21.24;45.98
46778;BME280;32536;47.128;8.746;2023-07-16T01:07:01;91899.66;;;21.23;47.65
46778;BME280;32536;47.128;8.746;2023-07-16T01:09:32;91908.88;;;21.26;46.07
46778;BME280;32536;47.128;8.746;2023-07-16T01:12:00;91909.66;;;21.26;45.93
46778;BME280;32536;47.128;8.746;2023-07-16T01:14:27;91911.13;;;21.27;45.90
46778;BME280;32536;47.128;8.746;2023-07-16T01:16:53;91927.94;;;21.26;45.95
46778;BME280;32536;47.128;8.746;2023-07-16T01:19:25;91929.63;;;21.23;46.15
46778;BME280;32536;47.128;8.746;2023-07-16T01:22:10;91936.28;;;21.22;48.36
46778;BME280;32536;47.128;8.746;2023-07-16T01:24:59;91948.69;;;21.23;47.34
46778;BME280;32536;47.128;8.746;2023-07-16T01:30:43;91931.50;;;21.17;45.99
46778;BME280;32536;47.128;8.746;2023-07-16T01:33:12;91926.88;;;21.08;46.42
46778;BME280;32536;47.128;8.746;2023-07-16T01:35:40;91930.41;;;21.00;46.79
46778;BME280;32536;47.128;8.746;2023-07-16T01:38:09;91921.19;;;20.97;47.13
46778;BME280;32536;47.128;8.746;2023-07-16T01:40:37;91905.91;;;21.00;46.43
46778;BME280;32536;47.128;8.746;2023-07-16T01:43:05;91911.03;;;20.98;46.77
46778;BME280;32536;47.128;8.746;2023-07-16T01:45:31;91904.25;;;20.93;46.76
46778;BME280;32536;47.128;8.746;2023-07-16T01:54:48;91902.13;;;20.97;47.15
46778;BME280;32536;47.128;8.746;2023-07-16T01:57:15;91907.28;;;20.95;47.43
46778;BME280;32536;47.128;8.746;2023-07-16T01:59:42;91912.09;;;21.00;47.60
46778;BME280;32536;47.128;8.746;2023-07-16T02:02:09;91913.72;;;21.07;47.58
46778;BME280;32536;47.128;8.746;2023-07-16T02:04:35;91906.13;;;21.11;47.58
46778;BME280;32536;47.128;8.746;2023-07-16T02:07:02;91904.72;;;21.16;47.56
46778;BME280;32536;47.128;8.746;2023-07-16T02:09:29;91908.66;;;21.15;47.78
46778;BME280;32536;47.128;8.746;2023-07-16T02:11:56;91898.97;;;21.14;47.77
46778;BME280;32536;47.128;8.746;2023-07-16T02:14:23;91898.81;;;21.17;47.30
46778;BME280;32536;47.128;8.746;2023-07-16T02:16:50;91898.16;;;21.22;47.34
46778;BME280;32536;47.128;8.746;2023-07-16T02:19:16;91889.81;;;21.26;47.14
46778;BME280;32536;47.128;8.746;2023-07-16T02:21:43;91903.44;;;21.26;47.68
46778;BME280;32536;47.128;8.746;2023-07-16T02:24:10;91909.41;;;21.15;48.17
46778;BME280;32536;47.128;8.746;2023-07-16T02:26:36;91911.00;;;21.07;48.27
46778;BME280;32536;47.128;8.746;2023-07-16T02:29:04;91918.31;;;21.01;48.08
46778;BME280;32536;47.128;8.746;2023-07-16T02:31:35;91914.50;;;20.98;48.17
46778;BME280;32536;47.128;8.746;2023-07-16T02:34:02;91909.53;;;20.97;47.76
46778;BME280;32536;47.128;8.746;2023-07-16T02:36:29;91905.59;;;20.98;47.97
46778;BME280;32536;47.128;8.746;2023-07-16T02:38:55;91904.38;;;20.99;48.02
46778;BME280;32536;47.128;8.746;2023-07-16T02:41:22;91896.50;;;21.01;47.86
46778;BME280;32536;47.128;8.746;2023-07-16T02:43:59;91907.84;;;20.99;49.59
46778;BME280;32536;47.128;8.746;2023-07-16T02:46:27;91887.88;;;21.02;48.04
46778;BME280;32536;47.128;8.746;2023-07-16T02:48:54;91889.66;;;21.05;48.28
46778;BME280;32536;47.128;8.746;2023-07-16T02:51:20;91896.31;;;21.04;48.59
46778;BME280;32536;47.128;8.746;2023-07-16T02:53:47;91896.50;;;21.01;48.84
46778;BME280;32536;47.128;8.746;2023-07-16T02:56:14;91889.72;;;20.96;48.63
46778;BME280;32536;47.128;8.746;2023-07-16T02:58:42;91887.91;;;20.93;48.60
46778;BME280;32536;47.128;8.746;2023-07-16T03:01:09;91880.06;;;20.95;47.97
46778;BME280;32536;47.128;8.746;2023-07-16T03:03:35;91861.72;;;20.95;48.37
46778;BME280;32536;47.128;8.746;2023-07-16T03:06:02;91867.19;;;20.95;48.31
46778;BME280;32536;47.128;8.746;2023-07-16T03:08:29;91874.00;;;20.91;48.47
46778;BME280;32536;47.128;8.746;2023-07-16T03:10:57;91869.97;;;20.86;49.15
46778;BME280;32536;47.128;8.746;2023-07-16T03:13:24;91895.09;;;20.81;49.05
46778;BME280;32536;47.128;8.746;2023-07-16T03:15:51;91892.56;;;20.77;49.20
46778;BME280;32536;47.128;8.746;2023-07-16T03:18:18;91896.50;;;20.76;49.14
46778;BME280;32536;47.128;8.746;2023-07-16T03:20:45;91893.19;;;20.72;49.17
46778;BME280;32536;47.128;8.746;2023-07-16T03:23:12;91899.53;;;20.69;49.23
46778;BME280;32536;47.128;8.746;2023-07-16T03:25:39;91902.72;;;20.68;49.14
46778;BME280;32536;47.128;8.746;2023-07-16T03:28:05;91906.81;;;20.72;48.69
46778;BME280;32536;47.128;8.746;2023-07-16T03:30:32;91912.25;;;20.72;49.39
46778;BME280;32536;47.128;8.746;2023-07-16T03:32:59;91899.25;;;20.76;49.01
46778;BME280;32536;47.128;8.746;2023-07-16T03:35:25;91896.34;;;20.80;49.06
46778;BME280;32536;47.128;8.746;2023-07-16T03:37:52;91905.25;;;20.81;49.58
46778;BME280;32536;47.128;8.746;2023-07-16T03:40:24;91901.31;;;20.82;50.18
46778;BME280;32536;47.128;8.746;2023-07-16T03:42:52;91902.34;;;20.84;49.49
46778;BME280;32536;47.128;8.746;2023-07-16T03:45:18;91898.41;;;20.85;49.77
46778;BME280;32536;47.128;8.746;2023-07-16T03:47:45;91910.22;;;20.82;50.10
46778;BME280;32536;47.128;8.746;2023-07-16T03:50:12;91925.81;;;20.82;49.89
46778;BME280;32536;47.128;8.746;2023-07-16T03:52:39;91927.50;;;20.79;50.43
46778;BME280;32536;47.128;8.746;2023-07-16T03:55:06;91916.78;;;20.75;49.91
46778;BME280;32536;47.128;8.746;2023-07-16T03:57:33;91904.50;;;20.80;49.52
46778;BME280;32536;47.128;8.746;2023-07-16T04:00:00;91898.41;;;20.85;49.25
46778;BME280;32536;47.128;8.746;2023-07-16T04:02:28;91904.44;;;20.89;50.17
46778;BME280;32536;47.128;8.746;2023-07-16T04:04:54;91886.88;;;20.90;49.66
46778;BME280;32536;47.128;8.746;2023-07-16T04:07:21;91869.47;;;20.97;49.52
46778;BME280;32536;47.128;8.746;2023-07-16T04:09:48;91890.59;;;21.02;49.33
46778;BME280;32536;47.128;8.746;2023-07-16T04:12:14;91918.41;;;21.06;50.25
46778;BME280;32536;47.128;8.746;2023-07-16T04:14:41;91922.34;;;21.05;49.77
46778;BME280;32536;47.128;8.746;2023-07-16T04:17:08;91910.53;;;21.08;49.48
46778;BME280;32536;47.128;8.746;2023-07-16T04:19:35;91910.34;;;21.12;49.97
46778;BME280;32536;47.128;8.746;2023-07-16T04:22:01;91905.66;;;21.13;49.41
46778;BME280;32536;47.128;8.746;2023-07-16T04:24:28;91912.59;;;21.14;49.50
46778;BME280;32536;47.128;8.746;2023-07-16T04:26:55;91907.44;;;21.16;49.70
46778;BME280;32536;47.128;8.746;2023-07-16T04:29:23;91915.16;;;21.17;49.88
46778;BME280;32536;47.128;8.746;2023-07-16T04:31:49;91919.38;;;21.18;50.03
46778;BME280;32536;47.128;8.746;2023-07-16T04:34:16;91914.59;;;21.13;50.19
46778;BME280;32536;47.128;8.746;2023-07-16T04:36:44;91911.00;;;21.07;50.14
46778;BME280;32536;47.128;8.746;2023-07-16T04:39:11;91911.00;;;21.07;50.38
46778;BME280;32536;47.128;8.746;2023-07-16T04:41:37;91920.22;;;21.09;50.00
46778;BME280;32536;47.128;8.746;2023-07-16T04:44:05;91914.28;;;21.11;50.01
46778;BME280;32536;47.128;8.746;2023-07-16T04:46:32;91908.09;;;21.10;50.27
46778;BME280;32536;47.128;8.746;2023-07-16T04:48:59;91916.53;;;21.13;50.28
46778;BME280;32536;47.128;8.746;2023-07-16T04:51:27;91913.38;;;21.14;50.20
46778;BME280;32536;47.128;8.746;2023-07-16T04:53:53;91909.22;;;21.19;49.81
46778;BME280;32536;47.128;8.746;2023-07-16T04:56:20;91907.38;;;21.25;49.76
46778;BME280;32536;47.128;8.746;2023-07-16T04:58:47;91901.47;;;21.26;49.87
46778;BME280;32536;47.128;8.746;2023-07-16T05:01:14;91915.84;;;21.27;50.01
46778;BME280;32536;47.128;8.746;2023-07-16T05:03:40;91913.41;;;21.29;50.12
46778;BME280;32536;47.128;8.746;2023-07-16T05:06:07;91902.31;;;21.33;50.38
46778;BME280;32536;47.128;8.746;2023-07-16T05:08:34;91908.03;;;21.35;50.73
46778;BME280;32536;47.128;8.746;2023-07-16T05:11:01;91917.00;;;21.35;50.88
46778;BME280;32536;47.128;8.746;2023-07-16T05:13:28;91928.81;;;21.32;50.98
46778;BME280;32536;47.128;8.746;2023-07-16T05:15:55;91932.66;;;21.25;50.81
46778;BME280;32536;47.128;8.746;2023-07-16T05:18:22;91936.41;;;21.28;50.25
46778;BME280;32536;47.128;8.746;2023-07-16T05:20:48;91936.53;;;21.34;50.15
46778;BME280;32536;47.128;8.746;2023-07-16T05:23:15;91943.28;;;21.38;50.17
46778;BME280;32536;47.128;8.746;2023-07-16T05:25:46;91929.41;;;21.36;50.46
46778;BME280;32536;47.128;8.746;2023-07-16T05:28:18;91925.91;;;21.36;51.19
46778;BME280;32536;47.128;8.746;2023-07-16T05:30:45;91925.25;;;21.41;50.75
46778;BME280;32536;47.128;8.746;2023-07-16T05:33:11;91915.13;;;21.41;50.40
46778;BME280;32536;47.128;8.746;2023-07-16T05:35:41;91916.34;;;21.40;50.68
46778;BME280;32536;47.128;8.746;2023-07-16T05:38:08;91919.34;;;21.42;50.86
46778;BME280;32536;47.128;8.746;2023-07-16T05:40:34;91915.88;;;21.42;50.54
46778;BME280;32536;47.128;8.746;2023-07-16T05:43:01;91905.44;;;21.40;50.80
46778;BME280;32536;47.128;8.746;2023-07-16T05:45:29;91905.91;;;21.39;50.88
46778;BME280;32536;47.128;8.746;2023-07-16T05:47:55;91900.47;;;21.39;50.76
46778;BME280;32536;47.128;8.746;2023-07-16T05:50:22;91892.56;;;21.41;50.99
46778;BME280;32536;47.128;8.746;2023-07-16T05:52:49;91889.94;;;21.47;51.20
46778;BME280;32536;47.128;8.746;2023-07-16T05:55:16;91889.00;;;21.50;51.29
46778;BME280;32536;47.128;8.746;2023-07-16T05:57:43;91877.16;;;21.53;51.32
46778;BME280;32536;47.128;8.746;2023-07-16T06:00:10;91880.50;;;21.57;50.90
46778;BME280;32536;47.128;8.746;2023-07-16T06:02:37;91887.72;;;21.60;51.17
46778;BME280;32536;47.128;8.746;2023-07-16T06:05:04;91882.56;;;21.62;51.11
46778;BME280;32536;47.128;8.746;2023-07-16T06:07:31;91885.59;;;21.64;51.02
46778;BME280;32536;47.128;8.746;2023-07-16T06:09:58;91884.16;;;21.69;51.01
46778;BME280;32536;47.128;8.746;2023-07-16T06:12:25;91883.97;;;21.72;50.96
46778;BME280;32536;47.128;8.746;2023-07-16T06:14:53;91875.06;;;21.72;50.92
46778;BME280;32536;47.128;8.746;2023-07-16T06:17:19;91870.81;;;21.71;50.93
46778;BME280;32536;47.128;8.746;2023-07-16T06:19:46;91869.13;;;21.73;50.45
46778;BME280;32536;47.128;8.746;2023-07-16T06:22:15;91867.53;;;21.82;50.31
46778;BME280;32536;47.128;8.746;2023-07-16T06:24:42;91871.41;;;21.90;50.65
46778;BME280;32536;47.128;8.746;2023-07-16T06:27:09;91874.97;;;21.96;50.58
46778;BME280;32536;47.128;8.746;2023-07-16T06:29:35;91881.16;;;21.97;50.71
46778;BME280;32536;47.128;8.746;2023-07-16T06:32:02;91876.66;;;21.94;50.89
46778;BME280;32536;47.128;8.746;2023-07-16T06:34:29;91874.19;;;21.96;50.60
46778;BME280;32536;47.128;8.746;2023-07-16T06:36:56;91884.25;;;22.04;50.44
46778;BME280;32536;47.128;8.746;2023-07-16T06:39:22;91877.19;;;22.13;50.39
46778;BME280;32536;47.128;8.746;2023-07-16T06:41:49;91871.16;;;22.23;50.50
46778;BME280;32536;47.128;8.746;2023-07-16T06:44:16;91880.66;;;22.28;50.27
46778;BME280;32536;47.128;8.746;2023-07-16T06:46:42;91880.28;;;22.35;50.24
46778;BME280;32536;47.128;8.746;2023-07-16T06:49:09;91876.41;;;22.42;50.32
46778;BME280;32536;47.128;8.746;2023-07-16T06:51:36;91876.69;;;22.44;50.38
46778;BME280;32536;47.128;8.746;2023-07-16T06:54:03;91872.84;;;22.51;50.32
46778;BME280;32536;47.128;8.746;2023-07-16T06:56:30;91864.72;;;22.57;50.22
46778;BME280;32536;47.128;8.746;2023-07-16T06:58:56;91871.97;;;22.60;50.41
46778;BME280;32536;47.128;8.746;2023-07-16T07:01:23;91875.50;;;22.66;50.36
46778;BME280;32536;47.128;8.746;2023-07-16T07:03:50;91882.09;;;22.74;50.40
46778;BME280;32536;47.128;8.746;2023-07-16T07:06:17;91879.97;;;22.84;50.28
46778;BME280;32536;47.128;8.746;2023-07-16T07:08:43;91896.50;;;22.95;50.13
46778;BME280;32536;47.128;8.746;2023-07-16T07:11:10;91896.38;;;23.05;50.34
46778;BME280;32536;47.128;8.746;2023-07-16T07:13:37;91889.53;;;23.15;50.22
46778;BME280;32536;47.128;8.746;2023-07-16T07:16:03;91877.00;;;23.23;50.20
46778;BME280;32536;47.128;8.746;2023-07-16T07:18:30;91881.28;;;23.30;50.09
46778;BME280;32536;47.128;8.746;2023-07-16T07:20:57;91879.97;;;23.25;50.27
46778;BME280;32536;47.128;8.746;2023-07-16T07:23:23;91868.38;;;23.10;50.35
46778;BME280;32536;47.128;8.746;2023-07-16T07:25:51;91857.03;;;22.96;50.51
46778;BME280;32536;47.128;8.746;2023-07-16T07:28:19;91865.34;;;22.87;50.76
46778;BME280;32536;47.128;8.746;2023-07-16T07:30:46;91864.03;;;22.82;50.91
46778;BME280;32536;47.128;8.746;2023-07-16T07:33:13;91860.84;;;22.84;50.82
46778;BME280;32536;47.128;8.746;2023-07-16T07:35:39;91861.41;;;22.88;51.07
46778;BME280;32536;47.128;8.746;2023-07-16T07:38:06;91876.34;;;22.93;50.72
46778;BME280;32536;47.128;8.746;2023-07-16T07:40:33;91865.75;;;23.00;50.68
46778;BME280;32536;47.128;8.746;2023-07-16T07:42:59;91871.09;;;23.10;50.47
46778;BME280;32536;47.128;8.746;2023-07-16T07:45:26;91854.97;;;23.12;50.46
46778;BME280;32536;47.128;8.746;2023-07-16T07:47:53;91852.22;;;23.12;50.59
46778;BME280;32536;47.128;8.746;2023-07-16T07:50:20;91858.25;;;23.16;50.36
46778;BME280;32536;47.128;8.746;2023-07-16T07:52:46;91853.63;;;23.22;50.25
46778;BME280;32536;47.128;8.746;2023-07-16T07:55:13;91856.16;;;23.26;50.14
46778;BME280;32536;47.128;8.746;2023-07-16T07:57:40;91854.97;;;23.32;50.12
46778;BME280;32536;47.128;8.746;2023-07-16T08:00:07;91855.03;;;23.38;49.97
46778;BME280;32536;47.128;8.746;2023-07-16T08:02:37;91853.00;;;23.33;49.98
46778;BME280;32536;47.128;8.746;2023-07-16T08:05:05;91858.13;;;23.25;50.06
46778;BME280;32536;47.128;8.746;2023-07-16T08:07:32;91855.38;;;23.25;50.05
46778;BME280;32536;47.128;8.746;2023-07-16T08:09:59;91857.66;;;23.27;49.92
46778;BME280;32536;47.128;8.746;2023-07-16T08:15:46;91834.97;;;23.21;49.80
46778;BME280;32536;47.128;8.746;2023-07-16T08:18:13;91840.06;;;23.13;50.13
46778;BME280;32536;47.128;8.746;2023-07-16T08:20:40;91835.59;;;23.10;50.15
46778;BME280;32536;47.128;8.746;2023-07-16T08:23:07;91841.03;;;23.10;50.32
46778;BME280;32536;47.128;8.746;2023-07-16T08:25:34;91855.72;;;23.12;50.30
46778;BME280;32536;47.128;8.746;2023-07-16T08:28:09;91868.63;;;23.12;50.92
46778;BME280;32536;47.128;8.746;2023-07-16T08:30:37;91880.13;;;23.16;50.26
46778;BME280;32536;47.128;8.746;2023-07-16T08:33:04;91876.63;;;23.15;50.24
46778;BME280;32536;47.128;8.746;2023-07-16T08:35:30;91882.78;;;23.10;50.25
46778;BME280;32536;47.128;8.746;2023-07-16T08:37:57;91880.00;;;23.05;50.20
46778;BME280;32536;47.128;8.746;2023-07-16T08:40:24;91878.88;;;22.96;50.35
46778;BME280;32536;47.128;8.746;2023-07-16T08:42:50;91875.75;;;22.83;50.75
46778;BME280;32536;47.128;8.746;2023-07-16T08:45:19;91870.34;;;22.68;51.23
46778;BME280;32536;47.128;8.746;2023-07-16T08:47:49;91852.09;;;22.59;51.01
46778;BME280;32536;47.128;8.746;2023-07-16T08:50:16;91846.28;;;22.51;51.32
46778;BME280;32536;47.128;8.746;2023-07-16T08:52:44;91852.03;;;22.53;51.42
46778;BME280;32536;47.128;8.746;2023-07-16T08:55:10;91865.28;;;22.46;51.80
46778;BME280;32536;47.128;8.746;2023-07-16T08:57:38;91867.09;;;22.34;51.80
46778;BME280;32536;47.128;8.746;2023-07-16T09:00:06;91866.28;;;22.28;51.82
46778;BME280;32536;47.128;8.746;2023-07-16T09:02:34;91881.41;;;22.29;51.63
46778;BME280;32536;47.128;8.746;2023-07-16T09:05:01;91879.69;;;22.31;51.66
46778;BME280;32536;47.128;8.746;2023-07-16T09:07:28;91867.56;;;22.32;51.66
46778;BME280;32536;47.128;8.746;2023-07-16T09:09:59;91866.81;;;22.32;51.81
46778;BME280;32536;47.128;8.746;2023-07-16T09:12:27;91866.63;;;22.35;52.37
46778;BME280;32536;47.128;8.746;2023-07-16T09:14:55;91857.31;;;22.42;52.24
46778;BME280;32536;47.128;8.746;2023-07-16T09:17:25;91872.84;;;22.51;52.03
46778;BME280;32536;47.128;8.746;2023-07-16T09:19:52;91870.38;;;22.53;52.00
46778;BME280;32536;47.128;8.746;2023-07-16T09:22:19;91878.94;;;22.61;51.87
46778;BME280;32536;47.128;8.746;2023-07-16T09:24:47;91873.72;;;22.63;51.55
46778;BME280;32536;47.128;8.746;2023-07-16T09:27:13;91882.47;;;22.67;51.50
46778;BME280;32536;47.128;8.746;2023-07-16T09:29:40;91876.81;;;22.70;51.46
46778;BME280;32536;47.128;8.746;2023-07-16T09:32:07;91878.66;;;22.79;51.44
46778;BME280;32536;47.128;8.746;2023-07-16T09:34:34;91877.78;;;22.88;51.32
46778;BME280;32536;47.128;8.746;2023-07-16T09:37:02;91880.50;;;22.88;51.27
46778;BME280;32536;47.128;8.746;2023-07-16T09:39:31;91876.97;;;22.82;51.54
46778;BME280;32536;47.128;8.746;2023-07-16T09:41:59;91882.44;;;22.82;51.39
46778;BME280;32536;47.128;8.746;2023-07-16T09:44:25;91882.44;;;22.82;51.42
46778;BME280;32536;47.128;8.746;2023-07-16T09:46:52;91883.09;;;22.77;51.42
46778;BME280;32536;47.128;8.746;2023-07-16T09:49:19;91886.59;;;22.77;51.41
46778;BME280;32536;47.128;8.746;2023-07-16T09:51:48;91880.09;;;22.75;51.40
46778;BME280;32536;47.128;8.746;2023-07-16T09:54:15;91876.34;;;22.72;51.44
46778;BME280;32536;47.128;8.746;2023-07-16T09:56:48;91874.63;;;22.75;51.86
46778;BME280;32536;47.128;8.746;2023-07-16T09:59:20;91877.91;;;22.79;51.54
46778;BME280;32536;47.128;8.746;2023-07-16T10:01:50;91885.34;;;22.78;51.51
46778;BME280;32536;47.128;8.746;2023-07-16T10:04:19;91892.25;;;22.74;51.59
46778;BME280;32536;47.128;8.746;2023-07-16T10:06:58;91895.75;;;22.74;51.61
46778;BME280;32536;47.128;8.746;2023-07-16T10:09:42;91891.69;;;22.69;51.68
46778;BME280;32536;47.128;8.746;2023-07-16T10:12:23;91893.72;;;22.54;51.94
46778;BME280;32536;47.128;8.746;2023-07-16T10:14:52;91893.81;;;22.45;51.99
46778;BME280;32536;47.128;8.746;2023-07-16T10:17:24;91898.06;;;22.46;51.85
46778;BME280;32536;47.128;8.746;2023-07-16T10:20:12;91896.09;;;22.46;52.21
46778;BME280;32536;47.128;8.746;2023-07-16T10:22:46;91899.38;;;22.50;51.96
46778;BME280;32536;47.128;8.746;2023-07-16T10:28:16;91898.22;;;22.57;51.82
46778;BME280;32536;47.128;8.746;2023-07-16T10:30:43;91904.81;;;22.50;51.83
46778;BME280;32536;47.128;8.746;2023-07-16T10:33:13;91907.41;;;22.39;52.43
46778;BME280;32536;47.128;8.746;2023-07-16T10:35:45;91906.78;;;22.35;52.28
46778;BME280;32536;47.128;8.746;2023-07-16T10:38:12;91902.59;;;22.34;52.35
46778;BME280;32536;47.128;8.746;2023-07-16T10:40:42;91894.84;;;22.32;52.39
46778;BME280;32536;47.128;8.746;2023-07-16T10:43:11;91905.13;;;22.37;52.03
46778;BME280;32536;47.128;8.746;2023-07-16T10:45:38;91907.94;;;22.43;52.04
46778;BME280;32536;47.128;8.746;2023-07-16T10:48:05;91919.44;;;22.47;51.90
46778;BME280;32536;47.128;8.746;2023-07-16T10:50:33;91923.09;;;22.44;52.07
46778;BME280;32536;47.128;8.746;2023-07-16T10:53:00;91913.22;;;22.47;52.06
46778;BME280;32536;47.128;8.746;2023-07-16T10:55:29;91905.78;;;22.47;52.06
46778;BME280;32536;47.128;8.746;2023-07-16T10:57:57;91911.78;;;22.51;51.94
46778;BME280;32536;47.128;8.746;2023-07-16T11:00:24;91903.72;;;22.42;52.07
46778;BME280;32536;47.128;8.746;2023-07-16T11:02:51;91910.28;;;22.35;52.16
46778;BME280;32536;47.128;8.746;2023-07-16T11:05:18;91902.50;;;22.28;52.28
46778;BME280;32536;47.128;8.746;2023-07-16T11:07:46;91906.25;;;22.31;52.32
46778;BME280;32536;47.128;8.746;2023-07-16T11:10:17;91904.34;;;22.37;52.50
46778;BME280;32536;47.128;8.746;2023-07-16T11:12:44;91908.72;;;22.44;52.06
46778;BME280;32536;47.128;8.746;2023-07-16T11:15:15;91900.31;;;22.47;52.05
46778;BME280;32536;47.128;8.746;2023-07-16T11:17:42;91900.41;;;22.53;52.01
46778;BME280;32536;47.128;8.746;2023-07-16T11:20:19;91898.50;;;22.59;52.00
46778;BME280;32536;47.128;8.746;2023-07-16T11:22:46;91895.38;;;22.66;51.97
46778;BME280;32536;47.128;8.746;2023-07-16T11:25:13;91898.66;;;22.70;51.81
46778;BME280;32536;47.128;8.746;2023-07-16T11:27:41;91900.44;;;22.74;51.99
46778;BME280;32536;47.128;8.746;2023-07-16T11:30:09;91907.94;;;22.79;51.89
46778;BME280;32536;47.128;8.746;2023-07-16T11:32:43;91901.25;;;22.80;52.01
46778;BME280;32536;47.128;8.746;2023-07-16T11:35:16;91890.34;;;22.80;52.13
46778;BME280;32536;47.128;8.746;2023-07-16T11:37:45;91897.84;;;22.85;51.98
46778;BME280;32536;47.128;8.746;2023-07-16T11:40:17;91898.47;;;22.95;52.19
46778;BME280;32536;47.128;8.746;2023-07-16T11:42:45;91893.16;;;23.06;51.88
46778;BME280;32536;47.128;8.746;2023-07-16T11:45:30;91890.47;;;23.12;52.22
46778;BME280;32536;47.128;8.746;2023-07-16T11:47:57;91907.06;;;23.23;51.72
46778;BME280;32536;47.128;8.746;2023-07-16T11:50:25;91900.41;;;23.30;51.50
46778;BME280;32536;47.128;8.746;2023-07-16T11:52:53;91891.28;;;23.33;51.38
46778;BME280;32536;47.128;8.746;2023-07-16T11:55:22;91885.59;;;23.37;51.40
46778;BME280;32536;47.128;8.746;2023-07-16T11:57:49;91891.59;;;23.41;51.57
46778;BME280;32536;47.128;8.746;2023-07-16T12:00:16;91883.66;;;23.43;51.09
46778;BME280;32536;47.128;8.746;2023-07-16T12:02:43;91889.63;;;23.41;51.28
46778;BME280;32536;47.128;8.746;2023-07-16T12:05:20;91877.44;;;23.42;51.28
46778;BME280;32536;47.128;8.746;2023-07-16T12:07:47;91893.91;;;23.48;51.34
46778;BME280;32536;47.128;8.746;2023-07-16T12:10:14;91888.75;;;23.56;51.18
46778;BME280;32536;47.128;8.746;2023-07-16T12:12:40;91901.75;;;23.61;50.85
46778;BME280;32536;47.128;8.746;2023-07-16T12:15:08;91889.31;;;23.60;50.94
46778;BME280;32536;47.128;8.746;2023-07-16T12:17:35;91899.69;;;23.56;51.06
46778;BME280;32536;47.128;8.746;2023-07-16T12:20:03;91888.31;;;23.57;51.00
46778;BME280;32536;47.128;8.746;2023-07-16T12:22:30;91892.53;;;23.58;51.04
46778;BME280;32536;47.128;8.746;2023-07-16T12:24:57;91890.53;;;23.59;50.97
46778;BME280;32536;47.128;8.746;2023-07-16T12:27:23;91886.09;;;23.61;50.88
46778;BME280;32536;47.128;8.746;2023-07-16T12:29:50;91885.81;;;23.59;51.01
46778;BME280;32536;47.128;8.746;2023-07-16T12:32:18;91883.94;;;23.45;51.13
46778;BME280;32536;47.128;8.746;2023-07-16T12:34:45;91891.59;;;23.41;51.17
46778;BME280;32536;47.128;8.746;2023-07-16T12:37:12;91889.34;;;23.39;51.31
46778;BME280;32536;47.128;8.746;2023-07-16T12:39:39;91902.72;;;23.37;51.28
46778;BME280;32536;47.128;8.746;2023-07-16T12:42:06;91898.03;;;23.38;51.39
46778;BME280;32536;47.128;8.746;2023-07-16T12:44:33;91886.63;;;23.39;51.32
46778;BME280;32536;47.128;8.746;2023-07-16T12:46:59;91898.78;;;23.38;51.54
46778;BME280;32536;47.128;8.746;2023-07-16T12:49:26;91892.41;;;23.47;51.42
46778;BME280;32536;47.128;8.746;2023-07-16T12:51:53;91888.97;;;23.52;51.27
46778;BME280;32536;47.128;8.746;2023-07-16T12:54:19;91894.44;;;23.52;51.20
46778;BME280;32536;47.128;8.746;2023-07-16T12:56:46;91900.25;;;23.60;51.32
46778;BME280;32536;47.128;8.746;2023-07-16T12:59:13;91895.81;;;23.62;51.35
46778;BME280;32536;47.128;8.746;2023-07-16T13:01:39;91898.53;;;23.62;51.39
46778;BME280;32536;47.128;8.746;2023-07-16T13:04:06;91901.56;;;23.64;51.15
46778;BME280;32536;47.128;8.746;2023-07-16T13:06:33;91889.41;;;23.71;51.29
46778;BME280;32536;47.128;8.746;2023-07-16T13:08:59;91892.97;;;23.77;51.13
46778;BME280;32536;47.128;8.746;2023-07-16T13:11:26;91892.97;;;23.77;51.18
46778;BME280;32536;47.128;8.746;2023-07-16T13:13:53;91891.66;;;23.73;51.33
46778;BME280;32536;47.128;8.746;2023-07-16T13:16:20;91900.38;;;23.71;51.21
46778;BME280;32536;47.128;8.746;2023-07-16T13:18:46;91898.91;;;23.76;51.17